Time;durP1;ratioP1;P1;durP2;ratioP2;P2;SDS_P1;SDS_P2;PMS_P1;PMS_P2;Temp;Humidity;BMP_temperature;BMP_pressure;BME280_temperature;BME280_humidity;BME280_pressure;Samples;Min_cycle;Max_cycle;Signal;HPM_P1;HPM_P2
2023/01/22 00:02:39;;;;;;;4.05;1.90;;;2.30;99.90;;;;;;5050072;28;20048;-85
2023/01/22 00:05:26;;;;;;;7.80;2.15;;;2.40;99.90;;;;;;5035999;28;20053;-83
2023/01/22 00:08:12;;;;;;;13.25;3.70;;;2.40;99.90;;;;;;5050716;28;20493;-82
2023/01/22 00:10:57;;;;;;;5.57;1.90;;;2.40;99.90;;;;;;5051305;28;20053;-82
2023/01/22 00:13:44;;;;;;;4.70;2.30;;;2.40;99.90;;;;;;5051944;28;20147;-78
2023/01/22 00:16:30;;;;;;;8.73;3.15;;;2.40;99.90;;;;;;5054460;28;20092;-78
2023/01/22 00:19:16;;;;;;;6.93;2.13;;;2.50;99.90;;;;;;5051520;28;20140;-78
2023/01/22 00:22:02;;;;;;;7.35;2.80;;;2.50;99.90;;;;;;5050929;28;20126;-84
2023/01/22 00:24:48;;;;;;;11.15;4.50;;;2.50;99.90;;;;;;5052305;28;20400;-84
2023/01/22 00:27:34;;;;;;;5.32;2.35;;;2.60;99.90;;;;;;5053165;28;20055;-85
2023/01/22 00:30:20;;;;;;;27.33;4.95;;;2.60;99.90;;;;;;5052668;28;20489;-82
2023/01/22 00:33:07;;;;;;;9.10;3.30;;;2.60;99.90;;;;;;5036509;28;20132;-78
2023/01/22 00:35:53;;;;;;;5.70;2.85;;;2.60;99.90;;;;;;5035854;28;20065;-78
2023/01/22 00:38:39;;;;;;;8.43;4.45;;;2.60;99.90;;;;;;5058785;28;20056;-77
2023/01/22 00:41:26;;;;;;;6.65;3.38;;;2.60;99.90;;;;;;5056744;28;20049;-77
2023/01/22 00:44:12;;;;;;;7.68;2.83;;;2.60;99.90;;;;;;5036838;28;20044;-80
2023/01/22 00:46:58;;;;;;;6.70;2.80;;;2.60;99.90;;;;;;5023081;28;20135;-77
2023/01/22 00:49:44;;;;;;;11.80;3.17;;;2.60;99.90;;;;;;5054328;28;20123;-77
2023/01/22 00:52:30;;;;;;;4.95;2.28;;;2.60;99.90;;;;;;5039042;28;20408;-79
2023/01/22 00:55:16;;;;;;;7.45;2.70;;;2.50;99.90;;;;;;5054365;28;20475;-78
2023/01/22 00:58:02;;;;;;;7.18;2.70;;;2.50;99.90;;;;;;5054447;28;20049;-78
2023/01/22 01:00:49;;;;;;;6.32;2.92;;;2.50;99.90;;;;;;5056765;28;20187;-79
2023/01/22 01:03:36;;;;;;;6.75;3.05;;;2.50;99.90;;;;;;5054527;28;20147;-77
2023/01/22 01:06:22;;;;;;;8.75;2.70;;;2.40;99.90;;;;;;5036079;28;20060;-82
2023/01/22 01:09:08;;;;;;;5.93;2.85;;;2.40;99.90;;;;;;5036010;28;20107;-77
2023/01/22 01:11:54;;;;;;;6.85;2.95;;;2.40;99.90;;;;;;5054088;28;20076;-77
2023/01/22 01:14:40;;;;;;;4.57;2.15;;;2.40;99.90;;;;;;5054279;28;20048;-76
2023/01/22 01:17:26;;;;;;;7.60;2.40;;;2.40;99.90;;;;;;5053893;28;20084;-79
2023/01/22 01:20:12;;;;;;;5.82;2.20;;;2.40;99.90;;;;;;5056180;28;20045;-78
2023/01/22 01:22:58;;;;;;;5.68;2.35;;;2.40;99.90;;;;;;5053727;28;20053;-78
2023/01/22 01:25:44;;;;;;;7.65;2.80;;;2.40;99.90;;;;;;5054116;28;20131;-80
2023/01/22 01:28:30;;;;;;;5.93;2.05;;;2.30;99.90;;;;;;5052096;28;20056;-84
2023/01/22 01:31:17;;;;;;;7.43;2.13;;;2.30;99.90;;;;;;5054156;28;20072;-81
2023/01/22 01:34:03;;;;;;;8.13;2.30;;;2.30;99.90;;;;;;5053754;28;20080;-78
2023/01/22 01:36:49;;;;;;;5.75;2.90;;;2.30;99.90;;;;;;5053987;28;20045;-81
2023/01/22 01:39:35;;;;;;;5.25;2.70;;;2.40;99.90;;;;;;5053856;28;20064;-79
2023/01/22 01:42:24;;;;;;;7.93;2.35;;;2.30;99.90;;;;;;5057847;28;20045;-79
2023/01/22 01:45:24;;;;;;;5.85;2.00;;;2.40;99.90;;;;;;5053413;28;20049;-78
2023/01/22 01:48:44;;;;;;;5.47;2.17;;;2.40;99.90;;;;;;5052896;28;20537;-78
2023/01/22 01:51:34;;;;;;;5.80;2.33;;;2.40;99.90;;;;;;5053810;28;20139;-79
2023/01/22 01:54:23;;;;;;;7.15;1.52;;;2.40;99.90;;;;;;5038515;28;20114;-82
2023/01/22 01:57:13;;;;;;;5.38;1.70;;;2.40;99.90;;;;;;5052297;28;20052;-80
2023/01/22 02:00:03;;;;;;;5.20;2.00;;;2.40;99.90;;;;;;5053337;28;20044;-80
2023/01/22 02:02:49;;;;;;;4.05;1.90;;;2.40;99.90;;;;;;5056593;28;20077;-79
2023/01/22 02:05:37;;;;;;;6.00;2.20;;;2.40;99.90;;;;;;5052784;28;20057;-78
2023/01/22 02:08:23;;;;;;;8.20;4.22;;;2.50;99.90;;;;;;5052976;28;20559;-79
2023/01/22 02:11:10;;;;;;;7.43;2.55;;;2.50;99.90;;;;;;5034876;28;20060;-79
2023/01/22 02:14:03;;;;;;;8.73;2.25;;;2.50;99.90;;;;;;5053046;28;20053;-78
2023/01/22 02:17:00;;;;;;;8.52;2.47;;;2.50;99.90;;;;;;5051202;28;20081;-78
2023/01/22 02:19:46;;;;;;;5.43;2.17;;;2.50;99.90;;;;;;5053135;28;20055;-77
2023/01/22 02:22:36;;;;;;;7.35;2.10;;;2.50;99.90;;;;;;5058573;28;20755;-79
2023/01/22 02:25:22;;;;;;;8.25;2.13;;;2.50;99.90;;;;;;5053395;28;20045;-78
2023/01/22 02:28:08;;;;;;;9.88;2.08;;;2.60;99.90;;;;;;5051962;28;20489;-78
2023/01/22 02:30:55;;;;;;;7.55;2.63;;;2.50;99.90;;;;;;5034194;28;20060;-80
2023/01/22 02:33:41;;;;;;;9.82;2.30;;;2.60;99.90;;;;;;5051256;28;20141;-80
2023/01/22 02:36:29;;;;;;;5.43;2.00;;;2.60;99.90;;;;;;5052703;28;20040;-79
2023/01/22 02:39:15;;;;;;;6.97;2.90;;;2.50;99.90;;;;;;5036139;28;20048;-80
2023/01/22 02:42:03;;;;;;;6.50;2.00;;;2.50;99.90;;;;;;5037073;28;20045;-79
2023/01/22 02:44:51;;;;;;;9.95;2.22;;;2.50;99.90;;;;;;5021054;28;20056;-79
2023/01/22 02:47:37;;;;;;;8.27;1.90;;;2.50;99.90;;;;;;5052659;28;20487;-78
2023/01/22 02:50:23;;;;;;;4.20;1.90;;;2.50;99.90;;;;;;5051962;28;20128;-80
2023/01/22 02:53:09;;;;;;;4.47;2.17;;;2.50;99.90;;;;;;5051591;28;20049;-78
2023/01/22 02:55:56;;;;;;;9.60;1.83;;;2.50;99.90;;;;;;5052118;28;20515;-79
2023/01/22 02:58:42;;;;;;;5.70;1.65;;;2.50;99.90;;;;;;5039032;28;20124;-79
2023/01/22 03:01:28;;;;;;;5.75;1.65;;;2.50;99.90;;;;;;5034374;28;20216;-79
2023/01/22 03:04:14;;;;;;;4.10;1.52;;;2.50;99.90;;;;;;5051285;28;20511;-79
2023/01/22 03:07:00;;;;;;;6.45;1.95;;;2.60;99.90;;;;;;5051565;28;20049;-79
2023/01/22 03:09:46;;;;;;;5.65;1.95;;;2.60;99.90;;;;;;5051896;28;20119;-78
2023/01/22 03:21:47;;;;;;;12.43;2.28;;;2.60;99.90;;;;;;5051200;28;19931;-79
2023/01/22 03:24:34;;;;;;;6.70;2.97;;;2.60;99.90;;;;;;5051907;28;20053;-78
2023/01/22 03:27:23;;;;;;;5.38;2.90;;;2.60;99.90;;;;;;5033031;28;20136;-80
2023/01/22 03:30:10;;;;;;;7.53;3.10;;;2.60;99.90;;;;;;5051243;28;20049;-79
2023/01/22 03:32:56;;;;;;;7.65;3.05;;;2.60;99.90;;;;;;5051146;28;20397;-78
2023/01/22 03:35:42;;;;;;;20.83;4.95;;;2.60;99.90;;;;;;5035983;28;20049;-78
2023/01/22 03:38:29;;;;;;;6.55;3.38;;;2.60;99.90;;;;;;5050607;28;20103;-77
2023/01/22 03:41:17;;;;;;;7.65;2.90;;;2.60;99.90;;;;;;5051466;28;20053;-77
2023/01/22 03:44:03;;;;;;;10.77;3.20;;;2.60;99.90;;;;;;5022451;28;20057;-78
2023/01/22 03:46:50;;;;;;;11.07;3.13;;;2.50;99.90;;;;;;5050816;28;20139;-78
2023/01/22 03:49:36;;;;;;;6.72;2.67;;;2.50;99.90;;;;;;5050385;28;20053;-79
2023/01/22 03:52:22;;;;;;;5.22;2.80;;;2.50;99.90;;;;;;5051202;28;20383;-78
2023/01/22 03:55:08;;;;;;;7.85;2.90;;;2.50;99.90;;;;;;5051158;28;20053;-78
2023/01/22 03:57:54;;;;;;;7.97;3.20;;;2.40;99.90;;;;;;5032356;28;20150;-79
2023/01/22 04:00:40;;;;;;;6.85;3.00;;;2.40;99.90;;;;;;5050472;28;20110;-80
2023/01/22 04:03:27;;;;;;;8.05;3.63;;;2.30;99.90;;;;;;5050313;28;20105;-78
2023/01/22 04:06:14;;;;;;;9.00;3.25;;;2.30;99.90;;;;;;5055140;28;20049;-78
2023/01/22 04:09:00;;;;;;;6.88;2.95;;;2.30;99.90;;;;;;5052215;28;20165;-77
2023/01/22 04:11:46;;;;;;;9.75;2.78;;;2.30;99.90;;;;;;5050675;28;20053;-78
2023/01/22 04:14:32;;;;;;;7.40;2.78;;;2.40;99.90;;;;;;5051075;28;20051;-78
2023/01/22 04:17:18;;;;;;;11.30;3.20;;;2.30;99.90;;;;;;5051129;28;20084;-77
2023/01/22 04:20:04;;;;;;;8.23;3.20;;;2.40;99.90;;;;;;5051212;28;20075;-78
2023/01/22 04:22:51;;;;;;;6.53;3.03;;;2.30;99.90;;;;;;5050955;28;20087;-78
2023/01/22 04:25:37;;;;;;;7.70;2.78;;;2.40;99.90;;;;;;5036339;28;20103;-79
2023/01/22 04:28:23;;;;;;;7.75;2.95;;;2.30;99.90;;;;;;5050181;28;20049;-78
2023/01/22 04:31:09;;;;;;;6.38;2.38;;;2.30;99.90;;;;;;5036711;28;20053;-78
2023/01/22 04:33:55;;;;;;;8.30;2.92;;;2.40;99.90;;;;;;5056255;28;20053;-79
2023/01/22 04:36:41;;;;;;;6.07;3.00;;;2.40;99.90;;;;;;5050372;28;20128;-78
2023/01/22 04:39:30;;;;;;;5.95;2.75;;;2.40;99.90;;;;;;5050487;28;20402;-79
2023/01/22 04:42:17;;;;;;;11.00;2.88;;;2.30;99.90;;;;;;5049828;28;20091;-78
2023/01/22 04:45:03;;;;;;;7.95;2.95;;;2.40;99.90;;;;;;5050795;28;20124;-80
2023/01/22 04:47:49;;;;;;;8.57;3.10;;;2.40;99.90;;;;;;5050959;28;20045;-79
2023/01/22 04:50:36;;;;;;;7.82;3.70;;;2.30;99.90;;;;;;5050682;28;20057;-81
2023/01/22 04:53:22;;;;;;;8.05;3.60;;;2.30;99.90;;;;;;5050883;28;20472;-78
2023/01/22 04:56:08;;;;;;;6.97;3.10;;;2.30;99.90;;;;;;5049506;28;20075;-82
2023/01/22 04:58:54;;;;;;;13.25;4.05;;;2.30;99.90;;;;;;5049746;28;20180;-78
2023/01/22 05:01:41;;;;;;;9.02;3.30;;;2.30;99.90;;;;;;5053634;28;20041;-79
2023/01/22 05:04:27;;;;;;;7.50;3.38;;;2.30;99.90;;;;;;5052379;28;20085;-79
2023/01/22 05:07:13;;;;;;;7.85;3.95;;;2.30;99.90;;;;;;5050554;28;20053;-78
2023/01/22 05:09:59;;;;;;;12.57;3.00;;;2.30;99.90;;;;;;5050613;28;20413;-78
2023/01/22 05:12:45;;;;;;;6.78;2.97;;;2.30;99.90;;;;;;5049720;28;20405;-80
2023/01/22 05:15:31;;;;;;;9.90;3.03;;;2.20;99.90;;;;;;5049448;28;20057;-79
2023/01/22 05:18:17;;;;;;;7.35;2.75;;;2.20;99.90;;;;;;5050264;28;20090;-78
2023/01/22 05:21:04;;;;;;;7.88;3.30;;;2.20;99.90;;;;;;5050696;28;20056;-80
2023/01/22 05:23:50;;;;;;;8.18;2.80;;;2.20;99.90;;;;;;5058917;28;20052;-79
2023/01/22 05:26:36;;;;;;;8.70;3.63;;;2.20;99.90;;;;;;5034920;28;20087;-78
2023/01/22 05:29:25;;;;;;;7.45;3.15;;;2.20;99.90;;;;;;5052664;28;20053;-79
2023/01/22 05:32:12;;;;;;;5.43;2.85;;;2.30;99.90;;;;;;5053274;28;20110;-80
2023/01/22 05:34:58;;;;;;;5.90;3.42;;;2.30;99.90;;;;;;5053251;28;20045;-79
2023/01/22 05:37:44;;;;;;;8.18;2.42;;;2.30;99.90;;;;;;5053808;28;20053;-78
2023/01/22 05:40:30;;;;;;;6.38;2.63;;;2.30;99.90;;;;;;5052936;28;20068;-78
2023/01/22 05:43:16;;;;;;;10.90;2.70;;;2.30;99.90;;;;;;5037720;28;20048;-79
2023/01/22 05:46:03;;;;;;;6.10;2.80;;;2.30;99.90;;;;;;5053107;28;20056;-78
2023/01/22 05:48:49;;;;;;;5.78;2.78;;;2.30;99.90;;;;;;5053461;28;20137;-79
2023/01/22 05:51:35;;;;;;;6.07;3.55;;;2.30;99.90;;;;;;5052984;28;20056;-78
2023/01/22 05:54:21;;;;;;;7.35;2.95;;;2.30;99.90;;;;;;5035509;28;20092;-78
2023/01/22 05:57:07;;;;;;;6.63;2.83;;;2.30;99.90;;;;;;5053702;28;20071;-82
2023/01/22 05:59:53;;;;;;;7.82;2.85;;;2.30;99.90;;;;;;5035654;28;20052;-78
2023/01/22 06:02:39;;;;;;;6.18;2.90;;;2.30;99.90;;;;;;5053241;28;20134;-78
2023/01/22 06:05:26;;;;;;;6.63;2.85;;;2.30;99.90;;;;;;5052872;28;20096;-79
2023/01/22 06:08:12;;;;;;;6.03;3.10;;;2.30;99.90;;;;;;5039911;28;20048;-79
2023/01/22 06:11:03;;;;;;;7.90;3.88;;;2.30;99.90;;;;;;5053535;28;20489;-80
2023/01/22 06:13:49;;;;;;;7.18;3.75;;;2.30;99.90;;;;;;5036016;28;20497;-79
2023/01/22 06:16:35;;;;;;;7.28;3.63;;;2.30;99.90;;;;;;5036021;28;20053;-79
2023/01/22 06:19:21;;;;;;;9.43;3.15;;;2.30;99.90;;;;;;5052524;28;20049;-80
2023/01/22 06:22:07;;;;;;;11.25;3.10;;;2.30;99.90;;;;;;5034811;28;20049;-79
2023/01/22 06:24:53;;;;;;;5.93;3.03;;;2.20;99.90;;;;;;5052870;28;20566;-83
2023/01/22 06:27:39;;;;;;;8.82;3.20;;;2.30;99.90;;;;;;5052544;28;20057;-79
2023/01/22 06:30:25;;;;;;;5.82;3.00;;;2.30;99.90;;;;;;5052701;28;20458;-80
2023/01/22 06:33:12;;;;;;;7.18;3.20;;;2.30;99.90;;;;;;5057388;28;20136;-78
2023/01/22 06:35:58;;;;;;;9.07;3.22;;;2.20;99.90;;;;;;5052218;28;20057;-78
2023/01/22 06:38:44;;;;;;;7.93;2.88;;;2.20;99.90;;;;;;5053052;28;20060;-82
2023/01/22 06:41:30;;;;;;;9.23;2.80;;;2.30;99.90;;;;;;5052373;28;20095;-80
2023/01/22 06:44:17;;;;;;;8.80;3.08;;;2.30;99.90;;;;;;5052212;28;20052;-79
2023/01/22 06:47:03;;;;;;;7.40;2.30;;;2.20;99.90;;;;;;5052628;28;20142;-78
2023/01/22 06:49:49;;;;;;;8.43;3.53;;;2.20;99.90;;;;;;5051578;28;20405;-80
2023/01/22 06:52:37;;;;;;;7.93;2.97;;;2.20;99.90;;;;;;5055869;28;20079;-79
2023/01/22 06:55:23;;;;;;;8.27;3.33;;;2.20;99.90;;;;;;5042503;28;20049;-77
2023/01/22 06:58:09;;;;;;;8.77;2.80;;;2.30;99.90;;;;;;5036824;28;20051;-80
2023/01/22 07:01:02;;;;;;;7.88;2.90;;;2.20;99.90;;;;;;5052411;28;20060;-80
2023/01/22 07:03:48;;;;;;;8.20;2.25;;;2.20;99.90;;;;;;5051323;28;20048;-82
2023/01/22 07:06:34;;;;;;;5.45;2.60;;;2.20;99.90;;;;;;5051030;28;20412;-79
2023/01/22 07:09:21;;;;;;;10.35;3.30;;;2.20;99.90;;;;;;5052276;28;20056;-79
2023/01/22 07:12:07;;;;;;;5.28;2.78;;;2.20;99.90;;;;;;5037014;28;20385;-79
2023/01/22 07:14:53;;;;;;;6.55;2.70;;;2.20;99.90;;;;;;5053618;28;20410;-77
2023/01/22 07:17:39;;;;;;;8.68;3.75;;;2.20;99.90;;;;;;5053858;28;20057;-81
2023/01/22 07:20:25;;;;;;;7.95;2.55;;;2.20;99.90;;;;;;5052187;28;20053;-82
2023/01/22 07:23:11;;;;;;;6.53;2.72;;;2.20;99.90;;;;;;5051849;28;20045;-79
2023/01/22 07:25:57;;;;;;;8.25;2.85;;;2.20;99.90;;;;;;5050712;28;20519;-78
2023/01/22 07:28:44;;;;;;;12.48;2.60;;;2.20;99.90;;;;;;5051580;28;20056;-77
2023/01/22 07:31:30;;;;;;;6.30;2.85;;;2.20;99.90;;;;;;5050929;28;20056;-80
2023/01/22 07:34:16;;;;;;;6.63;2.75;;;2.20;99.90;;;;;;5033143;28;20122;-82
2023/01/22 07:37:02;;;;;;;7.68;2.97;;;2.20;99.90;;;;;;5054472;28;20455;-79
2023/01/22 07:39:48;;;;;;;8.35;2.65;;;2.20;99.90;;;;;;5051045;28;20060;-80
2023/01/22 07:42:36;;;;;;;5.20;2.72;;;2.20;99.90;;;;;;5051011;28;20090;-78
2023/01/22 07:45:23;;;;;;;10.90;2.88;;;2.20;99.90;;;;;;5051270;28;20059;-82
2023/01/22 07:48:10;;;;;;;8.35;3.03;;;2.20;99.90;;;;;;5033974;28;20094;-78
2023/01/22 07:51:00;;;;;;;7.65;2.80;;;2.20;99.90;;;;;;5051603;28;20146;-78
2023/01/22 07:53:46;;;;;;;5.13;2.58;;;2.10;99.90;;;;;;5050926;28;20052;-80
2023/01/22 07:56:32;;;;;;;8.98;2.60;;;2.10;99.90;;;;;;5050737;28;20052;-79
2023/01/22 07:59:18;;;;;;;7.57;2.53;;;2.10;99.90;;;;;;5055321;28;20056;-77
2023/01/22 08:02:04;;;;;;;10.18;3.03;;;2.20;99.90;;;;;;5034201;28;20559;-80
2023/01/22 08:04:51;;;;;;;8.60;2.30;;;2.20;99.90;;;;;;5051405;28;20048;-80
2023/01/22 08:07:37;;;;;;;8.55;3.38;;;2.20;99.90;;;;;;5032938;28;20049;-78
2023/01/22 08:10:23;;;;;;;5.07;2.65;;;2.20;99.90;;;;;;5051208;28;20085;-82
2023/01/22 08:13:09;;;;;;;9.38;3.17;;;2.30;99.90;;;;;;5050775;28;20059;-80
2023/01/22 08:15:55;;;;;;;4.07;2.17;;;2.30;99.90;;;;;;5050607;28;20065;-80
2023/01/22 08:18:41;;;;;;;8.57;2.80;;;2.30;99.90;;;;;;5050956;28;20127;-77
2023/01/22 08:21:28;;;;;;;9.20;2.53;;;2.30;99.90;;;;;;5053468;28;20053;-80
2023/01/22 08:24:14;;;;;;;11.05;3.20;;;2.30;99.90;;;;;;5049167;28;20413;-80
2023/01/22 08:27:00;;;;;;;8.35;2.85;;;2.30;99.90;;;;;;5032407;28;20762;-80
2023/01/22 08:29:48;;;;;;;4.75;2.22;;;2.30;99.90;;;;;;5050612;28;20049;-80
2023/01/22 08:32:34;;;;;;;4.90;2.50;;;2.40;99.90;;;;;;5033082;28;20044;-80
2023/01/22 08:35:20;;;;;;;8.43;2.97;;;2.40;99.90;;;;;;5033281;28;20060;-81
2023/01/22 08:38:06;;;;;;;8.32;3.33;;;2.40;99.90;;;;;;5050627;28;20045;-81
2023/01/22 08:40:53;;;;;;;5.57;2.25;;;2.40;99.90;;;;;;5049617;28;20045;-79
2023/01/22 08:43:39;;;;;;;5.90;2.33;;;2.40;99.90;;;;;;5049988;28;20048;-79
2023/01/22 08:46:25;;;;;;;6.40;2.50;;;2.40;99.90;;;;;;5055478;28;20059;-79
2023/01/22 08:49:11;;;;;;;4.35;2.30;;;2.40;99.90;;;;;;5023191;28;20045;-80
2023/01/22 08:51:57;;;;;;;6.80;2.65;;;2.40;99.90;;;;;;5032720;28;20056;-80
2023/01/22 08:54:43;;;;;;;10.25;3.22;;;2.40;99.90;;;;;;5050925;28;20056;-81
2023/01/22 08:57:29;;;;;;;7.00;2.47;;;2.50;99.90;;;;;;5039949;28;20049;-83
2023/01/22 09:00:15;;;;;;;8.35;3.00;;;2.50;99.90;;;;;;5053869;28;20110;-79
2023/01/22 09:03:01;;;;;;;7.35;2.92;;;2.50;99.90;;;;;;5054676;28;20045;-79
2023/01/22 09:05:49;;;;;;;8.07;3.03;;;2.50;99.90;;;;;;5057052;28;20088;-82
2023/01/22 09:08:35;;;;;;;6.25;3.20;;;2.50;99.90;;;;;;5053699;28;20417;-79
2023/01/22 09:11:21;;;;;;;8.48;3.42;;;2.50;99.90;;;;;;5054265;28;20037;-85
2023/01/22 09:14:08;;;;;;;6.43;2.88;;;2.50;99.90;;;;;;5053690;28;20083;-83
2023/01/22 09:16:54;;;;;;;9.50;2.85;;;2.50;99.90;;;;;;5054456;28;20088;-78
2023/01/22 09:19:40;;;;;;;8.05;3.67;;;2.50;99.90;;;;;;5054438;28;20185;-77
2023/01/22 09:22:26;;;;;;;5.32;2.60;;;2.60;99.90;;;;;;5036345;28;20049;-78
2023/01/22 09:25:14;;;;;;;6.47;3.03;;;2.60;99.90;;;;;;5035010;28;20516;-78
2023/01/22 09:28:03;;;;;;;9.07;2.85;;;2.60;99.90;;;;;;5054520;28;20055;-80
2023/01/22 09:30:49;;;;;;;6.28;3.30;;;2.60;99.90;;;;;;5055128;28;20049;-79
2023/01/22 09:33:35;;;;;;;7.72;4.30;;;2.60;99.90;;;;;;5058318;28;20057;-79
2023/01/22 09:36:22;;;;;;;9.02;3.30;;;2.60;99.90;;;;;;5035995;28;20053;-82
2023/01/22 09:39:08;;;;;;;4.82;2.70;;;2.70;99.90;;;;;;5039039;28;20071;-83
2023/01/22 09:41:58;;;;;;;7.10;3.03;;;2.80;99.90;;;;;;5054303;28;20056;-78
2023/01/22 09:44:47;;;;;;;9.07;3.45;;;2.80;99.90;;;;;;5036897;28;20053;-78
2023/01/22 09:47:50;;;;;;;6.97;2.97;;;2.90;99.90;;;;;;5053828;28;20191;-81
2023/01/22 09:50:37;;;;;;;8.50;3.35;;;2.90;99.90;;;;;;5053083;28;20060;-81
2023/01/22 09:53:23;;;;;;;8.02;3.15;;;3.00;99.90;;;;;;5053046;28;20057;-78
2023/01/22 09:56:21;;;;;;;5.20;2.85;;;3.00;99.90;;;;;;5052483;28;20053;-78
2023/01/22 09:59:17;;;;;;;9.55;3.33;;;3.10;99.90;;;;;;5059715;28;20083;-78
2023/01/22 10:02:29;;;;;;;6.80;3.47;;;3.20;99.90;;;;;;5053116;28;20400;-78
2023/01/22 10:05:43;;;;;;;8.52;3.28;;;3.20;99.90;;;;;;5054361;28;20049;-79
2023/01/22 10:08:37;;;;;;;11.68;3.03;;;3.20;99.90;;;;;;5037229;28;20057;-79
2023/01/22 10:11:24;;;;;;;7.20;3.58;;;3.20;99.90;;;;;;5035780;28;20103;-77
2023/01/22 10:14:15;;;;;;;9.57;3.47;;;3.20;99.90;;;;;;5052597;28;20061;-84
2023/01/22 10:17:02;;;;;;;11.13;3.63;;;3.20;99.90;;;;;;5052180;28;20568;-78
2023/01/22 10:19:58;;;;;;;5.65;2.88;;;3.20;99.90;;;;;;5053158;28;20056;-78
2023/01/22 10:22:44;;;;;;;;;;;3.40;99.90;;;;;;5039490;28;20045;-80
2023/01/22 10:25:30;;;;;;;13.25;4.40;;;3.40;99.90;;;;;;5034848;28;19932;-80
2023/01/22 10:28:24;;;;;;;7.60;4.00;;;3.40;99.90;;;;;;5052284;28;20119;-81
2023/01/22 10:31:32;;;;;;;7.78;3.20;;;3.30;99.90;;;;;;5055103;28;20052;-81
2023/01/22 10:34:35;;;;;;;6.47;2.92;;;3.40;99.90;;;;;;5054183;28;20049;-82
2023/01/22 10:37:21;;;;;;;8.50;3.35;;;3.40;99.90;;;;;;5053707;28;20085;-80
2023/01/22 10:40:23;;;;;;;7.40;3.65;;;3.40;99.90;;;;;;5037348;28;20390;-81
2023/01/22 10:43:15;;;;;;;6.85;4.00;;;3.30;99.90;;;;;;5054723;28;20409;-78
2023/01/22 10:46:16;;;;;;;10.50;3.45;;;3.30;99.90;;;;;;5053795;28;20063;-79
2023/01/22 10:49:07;;;;;;;7.68;3.20;;;3.30;99.90;;;;;;5052598;28;20049;-80
2023/01/22 10:51:58;;;;;;;7.50;3.40;;;3.30;99.90;;;;;;5052870;28;20118;-79
2023/01/22 10:54:52;;;;;;;5.75;3.33;;;3.30;99.90;;;;;;5053322;28;20057;-79
2023/01/22 10:57:39;;;;;;;6.07;3.15;;;3.30;99.90;;;;;;5052546;28;20082;-79
2023/01/22 11:00:38;;;;;;;7.68;3.10;;;3.40;99.90;;;;;;5052195;28;20114;-79
2023/01/22 11:03:37;;;;;;;8.30;2.78;;;3.50;99.90;;;;;;5052901;28;20041;-79
2023/01/22 11:06:33;;;;;;;8.10;3.75;;;3.50;99.90;;;;;;5023264;28;20060;-78
2023/01/22 11:09:21;;;;;;;7.32;2.78;;;3.60;99.90;;;;;;5042035;28;20060;-77
2023/01/22 11:12:20;;;;;;;5.75;2.60;;;3.60;99.90;;;;;;5040427;28;20140;-77
2023/01/22 11:15:24;;;;;;;7.28;3.58;;;3.70;99.90;;;;;;5053999;28;20153;-80
2023/01/22 11:18:30;;;;;;;6.22;3.17;;;3.70;99.90;;;;;;5052234;28;20095;-79
2023/01/22 11:21:37;;;;;;;7.57;3.05;;;3.70;99.90;;;;;;5053749;28;20572;-78
2023/01/22 11:24:45;;;;;;;7.53;2.95;;;3.70;99.90;;;;;;5050794;28;20044;-77
2023/01/22 11:27:37;;;;;;;7.30;3.40;;;3.70;99.90;;;;;;5051582;28;20092;-77
2023/01/22 11:30:59;;;;;;;6.75;3.05;;;3.70;99.90;;;;;;5032277;28;20053;-79
2023/01/22 11:34:10;;;;;;;8.48;3.00;;;3.80;99.90;;;;;;5051039;28;20589;-78
2023/01/22 11:37:16;;;;;;;6.95;2.80;;;3.80;99.90;;;;;;5050835;28;20056;-80
2023/01/22 11:40:23;;;;;;;7.82;2.70;;;3.80;99.90;;;;;;5051522;28;20045;-77
2023/01/22 11:43:34;;;;;;;9.63;3.50;;;3.90;99.90;;;;;;5036273;28;20044;-78
2023/01/22 11:46:53;;;;;;;5.78;2.53;;;3.90;99.90;;;;;;5031862;28;20057;-78
2023/01/22 11:49:39;;;;;;;6.35;3.17;;;3.90;99.90;;;;;;5037208;28;20049;-77
2023/01/22 11:52:49;;;;;;;5.45;2.70;;;4.00;99.90;;;;;;5051567;28;20056;-78
2023/01/22 11:55:46;;;;;;;6.60;2.67;;;4.00;99.90;;;;;;5053092;28;20060;-78
2023/01/22 11:58:51;;;;;;;5.45;2.70;;;4.00;99.90;;;;;;5050962;28;20091;-79
2023/01/22 12:02:04;;;;;;;7.38;3.30;;;4.00;99.90;;;;;;5051541;28;20047;-78
2023/01/22 12:05:15;;;;;;;7.45;2.50;;;4.00;99.90;;;;;;5033346;28;20520;-79
2023/01/22 12:08:37;;;;;;;7.93;2.75;;;4.00;99.90;;;;;;5033022;28;20049;-79
2023/01/22 12:11:51;;;;;;;17.38;3.83;;;4.10;99.90;;;;;;5033303;28;20539;-84
2023/01/22 12:15:15;;;;;;;6.65;2.72;;;4.10;99.90;;;;;;5033042;28;20550;-79
2023/01/22 12:18:25;;;;;;;6.50;2.72;;;4.10;99.90;;;;;;5020956;28;20052;-79
2023/01/22 12:21:37;;;;;;;8.70;2.65;;;4.10;99.90;;;;;;5053692;28;20049;-81
2023/01/22 12:24:36;;;;;;;6.28;3.03;;;4.10;99.90;;;;;;5050882;28;20497;-78
2023/01/22 12:28:02;;;;;;;6.95;3.13;;;4.10;99.90;;;;;;5051182;28;20163;-79
2023/01/22 12:31:22;;;;;;;5.82;2.85;;;4.00;99.90;;;;;;5034886;28;20055;-79
2023/01/22 12:34:22;;;;;;;7.93;2.83;;;4.00;99.90;;;;;;5034701;28;20060;-79
2023/01/22 12:37:17;;;;;;;5.90;2.78;;;4.00;99.90;;;;;;5020365;28;20057;-78
2023/01/22 12:40:09;;;;;;;5.28;2.42;;;3.90;99.90;;;;;;5034952;28;20053;-80
2023/01/22 12:42:59;;;;;;;5.60;2.63;;;4.00;99.90;;;;;;5038138;28;20053;-80
2023/01/22 12:46:01;;;;;;;6.85;2.78;;;4.00;99.90;;;;;;5021282;28;20068;-78
2023/01/22 12:49:03;;;;;;;9.90;3.30;;;4.00;99.90;;;;;;5034886;28;20057;-81
2023/01/22 12:51:52;;;;;;;7.78;3.15;;;4.00;99.90;;;;;;5034367;28;20057;-79
2023/01/22 12:54:38;;;;;;;5.30;3.38;;;4.10;99.90;;;;;;5034020;28;20095;-79
2023/01/22 12:57:36;;;;;;;6.43;3.00;;;4.20;99.90;;;;;;5034249;28;20045;-80
2023/01/22 13:00:35;;;;;;;7.57;3.13;;;4.30;99.90;;;;;;5034506;28;20045;-80
2023/01/22 13:03:27;;;;;;;9.60;3.58;;;4.40;99.90;;;;;;5035381;28;20049;-82
2023/01/22 13:06:37;;;;;;;6.95;2.95;;;4.50;99.90;;;;;;5036443;28;20053;-85
2023/01/22 13:09:26;;;;;;;7.47;2.85;;;4.80;99.90;;;;;;5017549;28;20493;-84
2023/01/22 13:12:27;;;;;;;8.73;2.72;;;5.10;99.90;;;;;;5033444;28;20053;-83
2023/01/22 13:15:22;;;;;;;18.73;3.33;;;5.20;99.90;;;;;;5034931;28;20498;-81
2023/01/22 13:18:26;;;;;;;9.80;2.80;;;5.50;99.90;;;;;;5036224;28;20049;-79
2023/01/22 13:21:17;;;;;;;11.00;2.78;;;5.60;99.90;;;;;;5034340;28;20457;-79
2023/01/22 13:24:13;;;;;;;13.18;2.80;;;5.60;99.90;;;;;;5034285;28;20045;-77
2023/01/22 13:27:02;;;;;;;6.32;2.63;;;5.60;99.90;;;;;;5034675;28;20053;-77
2023/01/22 13:29:48;;;;;;;6.47;2.83;;;5.50;99.90;;;;;;5047087;28;20049;-80
2023/01/22 13:32:34;;;;;;;9.88;3.15;;;5.30;99.90;;;;;;5053926;28;20132;-79
2023/01/22 13:35:20;;;;;;;6.95;2.63;;;5.20;99.90;;;;;;5056365;28;20056;-79
2023/01/22 13:38:14;;;;;;;6.40;2.85;;;5.20;99.90;;;;;;5053523;28;20056;-79
2023/01/22 13:41:07;;;;;;;8.07;2.85;;;5.10;99.90;;;;;;5052589;28;20080;-79
2023/01/22 13:43:53;;;;;;;8.73;3.33;;;4.90;99.90;;;;;;5054116;28;20049;-77
2023/01/22 13:46:40;;;;;;;6.70;2.80;;;4.80;99.90;;;;;;5026119;28;20056;-78
2023/01/22 13:49:31;;;;;;;7.72;3.42;;;4.70;99.90;;;;;;5035897;28;20122;-76
2023/01/22 13:52:18;;;;;;;12.07;3.17;;;4.60;99.90;;;;;;5053068;28;20064;-80
2023/01/22 13:55:17;;;;;;;13.68;3.03;;;4.60;99.90;;;;;;5053680;28;20109;-81
2023/01/22 13:58:04;;;;;;;8.75;3.03;;;4.50;99.90;;;;;;5038387;28;20451;-77
2023/01/22 14:00:51;;;;;;;9.18;3.30;;;4.50;99.90;;;;;;5057250;28;20057;-78
2023/01/22 14:03:39;;;;;;;7.00;3.22;;;4.50;99.90;;;;;;5036967;28;20819;-83
2023/01/22 14:06:26;;;;;;;11.80;4.78;;;4.50;99.90;;;;;;5035282;28;20067;-79
2023/01/22 14:09:12;;;;;;;5.75;2.63;;;4.50;99.90;;;;;;5053287;28;20045;-79
2023/01/22 14:11:59;;;;;;;11.85;4.15;;;4.40;99.90;;;;;;5035198;28;20056;-77
2023/01/22 14:14:46;;;;;;;8.45;3.20;;;4.40;99.90;;;;;;5035079;28;20521;-76
2023/01/22 14:17:33;;;;;;;9.52;3.80;;;4.50;99.90;;;;;;5052841;28;20045;-77
2023/01/22 14:20:19;;;;;;;8.13;3.47;;;4.50;99.90;;;;;;5053339;28;20048;-77
2023/01/22 14:23:06;;;;;;;12.55;3.95;;;4.60;99.90;;;;;;5052539;28;20516;-77
2023/01/22 14:25:53;;;;;;;7.53;3.55;;;4.60;99.90;;;;;;5051982;28;20085;-77
2023/01/22 14:28:39;;;;;;;9.93;3.75;;;4.60;99.90;;;;;;5040584;28;20061;-77
2023/01/22 14:31:25;;;;;;;10.52;3.50;;;4.70;99.90;;;;;;5052299;28;20053;-80
2023/01/22 14:34:11;;;;;;;5.97;3.25;;;4.70;99.90;;;;;;5052219;28;20442;-79
2023/01/22 14:36:57;;;;;;;12.55;4.30;;;4.60;99.90;;;;;;5034070;28;20120;-76
2023/01/22 14:39:43;;;;;;;8.88;3.50;;;4.50;99.90;;;;;;5052436;28;20110;-79
2023/01/22 14:42:29;;;;;;;10.18;3.95;;;4.40;99.90;;;;;;5052990;28;20049;-79
2023/01/22 14:45:18;;;;;;;9.55;3.28;;;4.40;99.90;;;;;;5051911;28;20064;-81
2023/01/22 14:48:04;;;;;;;9.18;3.13;;;4.30;99.90;;;;;;5052508;28;20102;-77
2023/01/22 14:50:50;;;;;;;7.50;2.67;;;4.30;99.90;;;;;;5034879;28;20057;-76
2023/01/22 14:53:37;;;;;;;9.65;3.20;;;4.30;99.90;;;;;;5055090;28;20107;-80
2023/01/22 14:56:23;;;;;;;10.60;3.65;;;4.20;99.90;;;;;;5052660;28;20053;-80
2023/01/22 14:59:10;;;;;;;14.63;3.25;;;4.10;99.90;;;;;;5035362;28;20053;-79
2023/01/22 15:01:56;;;;;;;10.80;3.80;;;4.10;99.90;;;;;;5051716;28;20045;-80
2023/01/22 15:04:43;;;;;;;10.23;4.47;;;4.10;99.90;;;;;;5034368;28;20052;-80